Time;durP1;ratioP1;P1;durP2;ratioP2;P2;SDS_P1;SDS_P2;PMS_P1;PMS_P2;Temp;Humidity;BMP_temperature;BMP_pressure;BME280_temperature;BME280_humidity;BME280_pressure;Samples;Min_cycle;Max_cycle;Signal;HPM_P1;HPM_P2
2021/09/30 00:01:02;;;;;;;14.55;5.07;;;;;;;;;;5051357;28;20075;-60
2021/09/30 00:03:30;;;;;;;13.52;4.70;;;;;;;;;;5051569;28;20032;-59
2021/09/30 00:05:55;;;;;;;13.63;4.63;;;;;;;;;;5033722;28;20017;-60
2021/09/30 00:08:21;;;;;;;14.65;4.68;;;;;;;;;;5051341;28;20263;-60
2021/09/30 00:10:58;;;;;;;14.65;4.88;;;;;;;;;;5051367;28;20491;-62
2021/09/30 00:32:44;;;;;;;14.70;5.20;;;;;;;;;;5051430;28;20040;-61
2021/09/30 00:46:03;;;;;;;14.20;5.45;;;;;;;;;;5055190;28;20059;-61
2021/09/30 01:40:21;;;;;;;18.10;7.05;;;;;;;;;;5054282;28;20033;-60
2021/09/30 02:58:56;;;;;;;19.02;7.53;;;;;;;;;;5051999;28;20040;-58
2021/09/30 03:01:23;;;;;;;16.75;6.53;;;;;;;;;;5052290;28;20033;-60
2021/09/30 03:03:53;;;;;;;18.15;7.20;;;;;;;;;;5051178;28;20105;-60
2021/09/30 03:06:19;;;;;;;18.30;7.50;;;;;;;;;;5034206;28;20029;-60
2021/09/30 03:08:48;;;;;;;21.15;7.57;;;;;;;;;;5052126;28;20483;-59
2021/09/30 03:11:15;;;;;;;18.25;7.93;;;;;;;;;;5052266;28;20070;-59
2021/09/30 03:13:44;;;;;;;18.92;7.32;;;;;;;;;;5052308;28;20051;-59
2021/09/30 03:16:16;;;;;;;20.27;7.72;;;;;;;;;;5034491;28;20028;-60
2021/09/30 03:23:41;;;;;;;18.67;7.15;;;;;;;;;;5052054;28;20031;-60
2021/09/30 03:26:07;;;;;;;18.63;7.70;;;;;;;;;;5051595;28;20044;-60
2021/09/30 03:28:34;;;;;;;20.27;7.28;;;;;;;;;;5051503;28;20505;-59
2021/09/30 03:31:01;;;;;;;18.65;8.18;;;;;;;;;;5033698;28;20055;-60
2021/09/30 03:33:27;;;;;;;18.75;7.50;;;;;;;;;;5033578;28;20055;-60
2021/09/30 03:35:53;;;;;;;19.05;8.18;;;;;;;;;;5051702;28;20056;-60
2021/09/30 03:38:21;;;;;;;18.88;8.48;;;;;;;;;;5033446;28;20032;-60
2021/09/30 03:40:48;;;;;;;22.20;8.38;;;;;;;;;;5051620;28;20025;-59
2021/09/30 03:43:14;;;;;;;18.60;7.40;;;;;;;;;;5051860;28;20041;-60
2021/09/30 03:45:40;;;;;;;20.45;8.82;;;;;;;;;;5051602;28;20021;-59
2021/09/30 03:48:07;;;;;;;22.33;8.18;;;;;;;;;;5033843;28;20240;-60
2021/09/30 03:50:42;;;;;;;21.60;7.82;;;;;;;;;;5051476;28;20025;-60
2021/09/30 04:01:15;;;;;;;19.58;7.88;;;;;;;;;;5051358;28;20182;-60
2021/09/30 04:03:41;;;;;;;18.90;7.18;;;;;;;;;;5051489;28;20026;-60
2021/09/30 04:06:07;;;;;;;20.13;8.48;;;;;;;;;;5051427;28;20040;-59
2021/09/30 04:08:34;;;;;;;22.63;8.15;;;;;;;;;;5033578;28;20393;-60
2021/09/30 04:11:00;;;;;;;20.23;8.98;;;;;;;;;;5033312;28;20550;-59
2021/09/30 04:13:26;;;;;;;19.73;7.82;;;;;;;;;;5033531;28;20405;-60
2021/09/30 04:15:52;;;;;;;21.25;8.40;;;;;;;;;;5055283;28;20021;-60
2021/09/30 04:18:18;;;;;;;24.40;8.23;;;;;;;;;;5054860;28;20439;-60
2021/09/30 04:20:45;;;;;;;17.33;7.97;;;;;;;;;;5037058;28;20029;-60
2021/09/30 04:23:10;;;;;;;18.80;7.07;;;;;;;;;;5037144;28;20067;-59
2021/09/30 04:25:37;;;;;;;17.88;7.47;;;;;;;;;;5037042;28;20068;-59
2021/09/30 04:28:03;;;;;;;19.05;7.05;;;;;;;;;;5037340;28;20021;-60
2021/09/30 04:30:29;;;;;;;19.45;7.25;;;;;;;;;;5054559;28;20028;-60
2021/09/30 04:32:55;;;;;;;20.67;9.80;;;;;;;;;;5055000;28;20047;-60
2021/09/30 04:35:21;;;;;;;17.75;6.45;;;;;;;;;;5054776;28;20103;-60
2021/09/30 04:37:47;;;;;;;18.80;7.05;;;;;;;;;;5054770;28;20078;-60
2021/09/30 04:40:13;;;;;;;20.13;6.78;;;;;;;;;;5053928;28;20159;-60
2021/09/30 04:42:39;;;;;;;18.98;7.15;;;;;;;;;;5054561;28;20060;-59
2021/09/30 04:45:06;;;;;;;24.85;8.13;;;;;;;;;;5036796;28;20087;-60
2021/09/30 04:47:32;;;;;;;18.50;7.25;;;;;;;;;;5054529;28;20040;-60
2021/09/30 04:49:58;;;;;;;20.65;7.05;;;;;;;;;;5054163;28;20377;-60
2021/09/30 04:52:24;;;;;;;15.10;5.70;;;;;;;;;;5036666;28;20028;-60
2021/09/30 04:54:50;;;;;;;17.33;6.55;;;;;;;;;;5054507;28;20423;-59
2021/09/30 04:57:17;;;;;;;20.95;8.38;;;;;;;;;;5054307;28;20021;-59
2021/09/30 04:59:43;;;;;;;36.50;7.95;;;;;;;;;;5053835;28;20024;-60
2021/09/30 05:02:09;;;;;;;17.38;6.63;;;;;;;;;;4983954;22;20557;-62
2021/09/30 05:04:35;;;;;;;19.35;7.07;;;;;;;;;;4951870;28;20394;-62
2021/09/30 05:07:01;;;;;;;21.85;7.80;;;;;;;;;;4966946;28;20023;-55
2021/09/30 05:09:28;;;;;;;19.65;6.60;;;;;;;;;;4963370;28;20109;-61
2021/09/30 05:11:57;;;;;;;18.33;7.82;;;;;;;;;;4932457;29;20342;-62
2021/09/30 05:14:23;;;;;;;18.90;7.72;;;;;;;;;;4932473;29;20016;-62
2021/09/30 05:16:51;;;;;;;19.10;6.97;;;;;;;;;;4931550;28;20023;-63
2021/09/30 05:19:17;;;;;;;21.48;7.80;;;;;;;;;;4949093;29;20031;-64
2021/09/30 05:21:43;;;;;;;19.90;6.70;;;;;;;;;;4951787;28;20027;-64
2021/09/30 05:24:09;;;;;;;21.23;7.90;;;;;;;;;;4951634;28;20446;-63
2021/09/30 05:26:35;;;;;;;22.67;7.57;;;;;;;;;;4948858;28;20027;-63
2021/09/30 05:29:01;;;;;;;21.63;7.53;;;;;;;;;;4951147;28;20054;-63
2021/09/30 05:31:28;;;;;;;17.95;7.15;;;;;;;;;;4950852;28;20027;-62
2021/09/30 05:33:55;;;;;;;18.15;7.47;;;;;;;;;;4951433;28;20435;-64
2021/09/30 05:36:21;;;;;;;20.67;7.03;;;;;;;;;;4949987;28;20173;-63
2021/09/30 05:38:47;;;;;;;20.33;7.32;;;;;;;;;;4951269;28;20059;-62
2021/09/30 05:41:13;;;;;;;19.38;8.23;;;;;;;;;;4949442;28;20063;-64
2021/09/30 05:43:40;;;;;;;18.40;6.95;;;;;;;;;;4949695;28;20027;-64
2021/09/30 05:46:08;;;;;;;20.23;7.13;;;;;;;;;;4951075;28;20027;-63
2021/09/30 05:48:34;;;;;;;17.77;7.13;;;;;;;;;;4950889;28;20034;-64
2021/09/30 05:51:00;;;;;;;18.98;6.90;;;;;;;;;;4950706;28;20039;-63
2021/09/30 05:53:26;;;;;;;17.05;7.35;;;;;;;;;;4949422;28;20056;-64
2021/09/30 05:55:53;;;;;;;20.55;8.38;;;;;;;;;;4950894;28;20027;-64
2021/09/30 05:58:19;;;;;;;21.25;8.27;;;;;;;;;;4951058;28;20070;-63
2021/09/30 06:01:05;;;;;;;20.02;7.05;;;;;;;;;;4950195;28;20065;-62
2021/09/30 06:12:18;;;;;;;19.75;7.50;;;;;;;;;;4970094;28;20035;-65
2021/09/30 06:14:24;;;;;;;19.38;7.03;;;;;;;;;;4977729;28;20027;-64
2021/09/30 06:16:51;;;;;;;18.60;7.30;;;;;;;;;;4970121;28;20022;-64
2021/09/30 06:19:20;;;;;;;17.40;6.90;;;;;;;;;;4968003;28;20030;-65
2021/09/30 06:21:49;;;;;;;23.58;9.10;;;;;;;;;;4969419;28;20038;-64
2021/09/30 06:24:16;;;;;;;20.88;7.55;;;;;;;;;;4969595;28;20117;-64
2021/09/30 06:26:42;;;;;;;17.83;6.50;;;;;;;;;;4969876;28;20066;-65
2021/09/30 06:29:09;;;;;;;25.70;6.75;;;;;;;;;;4967754;28;20588;-63
2021/09/30 06:31:35;;;;;;;16.52;6.22;;;;;;;;;;4969502;28;20147;-63
2021/09/30 06:34:01;;;;;;;20.38;7.25;;;;;;;;;;4968335;28;20124;-65
2021/09/30 06:36:27;;;;;;;19.38;7.40;;;;;;;;;;4962803;28;20463;-62
2021/09/30 06:38:53;;;;;;;18.88;7.00;;;;;;;;;;4950577;28;20021;-64
2021/09/30 06:41:19;;;;;;;20.95;6.63;;;;;;;;;;4949264;28;20114;-65
2021/09/30 06:43:45;;;;;;;15.25;6.63;;;;;;;;;;4950570;28;20023;-65
2021/09/30 06:46:11;;;;;;;17.65;6.28;;;;;;;;;;4950406;28;20029;-64
2021/09/30 06:48:37;;;;;;;18.75;5.95;;;;;;;;;;4948752;28;20165;-65
2021/09/30 06:51:04;;;;;;;19.23;5.75;;;;;;;;;;4949738;28;20035;-65
2021/09/30 06:53:30;;;;;;;17.70;6.43;;;;;;;;;;4950122;28;20031;-64
2021/09/30 06:56:05;;;;;;;16.95;7.20;;;;;;;;;;4949966;28;20039;-65
2021/09/30 06:58:31;;;;;;;17.95;5.70;;;;;;;;;;4949475;28;20027;-65
2021/09/30 07:00:58;;;;;;;24.60;7.40;;;;;;;;;;4949372;28;20065;-63
2021/09/30 07:03:25;;;;;;;19.70;6.43;;;;;;;;;;4955543;28;20098;-64
2021/09/30 07:05:51;;;;;;;19.80;5.82;;;;;;;;;;4969549;28;20041;-63
2021/09/30 07:08:17;;;;;;;16.45;6.03;;;;;;;;;;4967934;28;20031;-64
2021/09/30 07:10:44;;;;;;;20.05;6.72;;;;;;;;;;4969089;28;20034;-58
2021/09/30 07:13:10;;;;;;;16.73;7.03;;;;;;;;;;4969362;28;20022;-65
2021/09/30 07:15:36;;;;;;;19.90;6.03;;;;;;;;;;4968920;28;20026;-62
2021/09/30 07:18:11;;;;;;;18.27;6.43;;;;;;;;;;4967360;28;20795;-63
2021/09/30 07:20:37;;;;;;;18.35;5.78;;;;;;;;;;4968930;28;20031;-63
2021/09/30 07:23:03;;;;;;;20.63;6.00;;;;;;;;;;4969185;28;20073;-64
2021/09/30 07:25:29;;;;;;;19.50;6.45;;;;;;;;;;4969192;28;20023;-62
2021/09/30 07:27:55;;;;;;;22.73;6.53;;;;;;;;;;4967781;28;20133;-64
2021/09/30 07:30:21;;;;;;;16.70;6.43;;;;;;;;;;4967542;28;20364;-60
2021/09/30 07:32:47;;;;;;;22.30;5.90;;;;;;;;;;4969201;28;20096;-62
2021/09/30 07:35:13;;;;;;;17.60;5.88;;;;;;;;;;4969280;28;20053;-66
2021/09/30 07:37:39;;;;;;;20.08;6.07;;;;;;;;;;4972558;28;20023;-66
2021/09/30 07:40:05;;;;;;;17.50;6.28;;;;;;;;;;4972713;28;20057;-66
2021/09/30 07:42:31;;;;;;;18.75;5.97;;;;;;;;;;4974831;28;20113;-66
2021/09/30 07:44:57;;;;;;;21.95;5.93;;;;;;;;;;4974264;28;20129;-64
2021/09/30 07:47:24;;;;;;;22.95;7.90;;;;;;;;;;4971689;28;20467;-66
2021/09/30 07:49:51;;;;;;;18.13;5.57;;;;;;;;;;4975899;28;20026;-67
2021/09/30 07:52:17;;;;;;;18.67;6.93;;;;;;;;;;4977217;28;20042;-64
2021/09/30 07:54:43;;;;;;;23.38;6.20;;;;;;;;;;4972973;28;20050;-64
2021/09/30 07:57:10;;;;;;;15.65;6.25;;;;;;;;;;4970899;28;20084;-65
2021/09/30 07:59:36;;;;;;;16.65;5.40;;;;;;;;;;4967834;28;20111;-65
2021/09/30 08:02:02;;;;;;;17.63;5.97;;;;;;;;;;4952494;28;20080;-65
2021/09/30 08:04:28;;;;;;;15.95;5.55;;;;;;;;;;4967019;28;20038;-65
2021/09/30 08:06:54;;;;;;;20.40;5.90;;;;;;;;;;4973050;28;20475;-64
2021/09/30 08:09:20;;;;;;;21.88;8.40;;;;;;;;;;4973167;28;20031;-63
2021/09/30 08:11:47;;;;;;;19.70;5.95;;;;;;;;;;4972639;28;20019;-64
2021/09/30 08:14:13;;;;;;;19.45;5.90;;;;;;;;;;4951811;28;20031;-65
2021/09/30 08:16:39;;;;;;;18.23;7.10;;;;;;;;;;4953250;28;20043;-65
2021/09/30 08:19:06;;;;;;;28.05;5.90;;;;;;;;;;4951505;28;20031;-65
2021/09/30 08:21:32;;;;;;;16.52;4.90;;;;;;;;;;4952743;28;20047;-64
2021/09/30 08:23:58;;;;;;;27.92;5.85;;;;;;;;;;4952100;28;20026;-65
2021/09/30 08:26:24;;;;;;;17.83;5.70;;;;;;;;;;4952698;28;20027;-66
2021/09/30 08:28:52;;;;;;;16.90;6.40;;;;;;;;;;4952330;28;20038;-65
2021/09/30 08:31:20;;;;;;;16.48;5.50;;;;;;;;;;4952362;28;20510;-64
2021/09/30 08:33:47;;;;;;;18.67;6.00;;;;;;;;;;4952760;28;20042;-65
2021/09/30 08:36:13;;;;;;;21.58;6.03;;;;;;;;;;4950964;28;20115;-65
2021/09/30 08:38:42;;;;;;;17.75;5.72;;;;;;;;;;4952408;28;20028;-65
2021/09/30 08:41:09;;;;;;;19.58;6.03;;;;;;;;;;4952359;28;20483;-65
2021/09/30 08:43:35;;;;;;;18.13;5.70;;;;;;;;;;4952181;28;20031;-66
2021/09/30 08:46:02;;;;;;;16.50;5.80;;;;;;;;;;4952310;28;20016;-65
2021/09/30 08:48:28;;;;;;;18.10;5.90;;;;;;;;;;4951749;28;20168;-65
2021/09/30 08:50:54;;;;;;;16.23;5.88;;;;;;;;;;4952285;28;20030;-66
2021/09/30 08:53:20;;;;;;;18.50;5.63;;;;;;;;;;4952279;28;20024;-65
2021/09/30 08:55:45;;;;;;;19.27;5.72;;;;;;;;;;4951985;28;20506;-65
2021/09/30 08:58:12;;;;;;;16.63;6.80;;;;;;;;;;4950878;28;20027;-64
2021/09/30 09:00:42;;;;;;;15.80;7.10;;;;;;;;;;4951771;28;20471;-65
2021/09/30 09:03:08;;;;;;;18.52;6.18;;;;;;;;;;4951581;28;20071;-65
2021/09/30 09:05:37;;;;;;;16.92;6.30;;;;;;;;;;4952023;28;20027;-65
2021/09/30 09:08:05;;;;;;;18.58;6.72;;;;;;;;;;4952130;28;20055;-65
2021/09/30 09:10:36;;;;;;;17.33;6.43;;;;;;;;;;4951418;28;20038;-64
2021/09/30 09:13:09;;;;;;;21.10;6.43;;;;;;;;;;4950739;28;20070;-65
2021/09/30 09:15:57;;;;;;;15.75;6.32;;;;;;;;;;4950722;28;20355;-64
2021/09/30 09:18:31;;;;;;;18.77;6.25;;;;;;;;;;4951757;28;20038;-61
2021/09/30 09:21:00;;;;;;;18.05;6.50;;;;;;;;;;4951922;28;20089;-62
2021/09/30 09:23:26;;;;;;;;;;;;;;;;;;4950328;28;20403;-61
2021/09/30 09:26:12;;;;;;;17.00;6.75;;;;;;;;;;4951279;28;19910;-61
2021/09/30 09:28:39;;;;;;;18.90;7.25;;;;;;;;;;4951650;28;20177;-62
2021/09/30 09:31:05;;;;;;;21.00;8.02;;;;;;;;;;4950149;28;20495;-59
2021/09/30 09:33:35;;;;;;;20.60;7.00;;;;;;;;;;4951093;28;20027;-62
2021/09/30 09:36:09;;;;;;;15.30;6.72;;;;;;;;;;4949924;28;20395;-62
2021/09/30 09:38:44;;;;;;;15.90;6.80;;;;;;;;;;4951206;28;20073;-62
2021/09/30 09:41:19;;;;;;;17.52;7.88;;;;;;;;;;4951305;28;20039;-60
2021/09/30 09:43:46;;;;;;;15.57;6.53;;;;;;;;;;4951327;28;20158;-56
2021/09/30 09:46:13;;;;;;;15.93;6.53;;;;;;;;;;4950931;28;20063;-59
2021/09/30 09:48:39;;;;;;;16.27;6.63;;;;;;;;;;4950933;28;20031;-60
2021/09/30 09:51:09;;;;;;;18.23;6.70;;;;;;;;;;4951010;28;20098;-62
2021/09/30 09:53:35;;;;;;;16.33;6.53;;;;;;;;;;4951063;28;20027;-61
2021/09/30 09:56:08;;;;;;;15.35;6.43;;;;;;;;;;4949927;28;20109;-61
2021/09/30 09:58:41;;;;;;;15.55;6.80;;;;;;;;;;4949571;28;20058;-60
2021/09/30 10:01:07;;;;;;;17.48;6.82;;;;;;;;;;4950981;28;20035;-62
2021/09/30 10:03:33;;;;;;;14.52;6.53;;;;;;;;;;4957201;28;20113;-60
2021/09/30 10:06:00;;;;;;;13.52;6.60;;;;;;;;;;4969860;28;20425;-62
2021/09/30 10:08:26;;;;;;;17.55;7.13;;;;;;;;;;4967871;28;20030;-62
2021/09/30 10:10:53;;;;;;;17.55;7.05;;;;;;;;;;4969478;28;20035;-59
2021/09/30 10:13:20;;;;;;;15.27;7.30;;;;;;;;;;4969391;28;20026;-62
2021/09/30 10:15:46;;;;;;;16.58;7.07;;;;;;;;;;4968773;28;20034;-62
2021/09/30 10:18:13;;;;;;;15.05;7.13;;;;;;;;;;4969803;28;20030;-61
2021/09/30 10:20:39;;;;;;;19.45;8.75;;;;;;;;;;4968853;28;20027;-61
2021/09/30 10:23:07;;;;;;;16.83;7.53;;;;;;;;;;4969507;28;20104;-61
2021/09/30 10:25:35;;;;;;;16.65;7.97;;;;;;;;;;4969672;28;20513;-61
2021/09/30 10:28:02;;;;;;;17.63;7.95;;;;;;;;;;4969715;28;20027;-58
2021/09/30 10:30:33;;;;;;;17.60;8.00;;;;;;;;;;4968786;28;20030;-59
2021/09/30 10:32:59;;;;;;;18.20;8.40;;;;;;;;;;4969646;28;20482;-61
2021/09/30 10:35:39;;;;;;;17.05;8.25;;;;;;;;;;4969577;28;20466;-60
2021/09/30 10:38:24;;;;;;;17.15;8.30;;;;;;;;;;4969164;28;20050;-61
2021/09/30 10:41:06;;;;;;;20.27;8.40;;;;;;;;;;4968975;28;20031;-61
2021/09/30 10:43:33;;;;;;;16.52;8.63;;;;;;;;;;4969432;28;20039;-61
2021/09/30 10:45:59;;;;;;;19.23;8.38;;;;;;;;;;4967953;28;20031;-55
2021/09/30 10:48:30;;;;;;;17.48;8.05;;;;;;;;;;4967820;28;20463;-62
2021/09/30 10:50:56;;;;;;;21.42;8.75;;;;;;;;;;4969115;28;20022;-61
2021/09/30 10:53:40;;;;;;;16.75;8.30;;;;;;;;;;4968797;28;20534;-59
2021/09/30 10:56:27;;;;;;;20.85;8.95;;;;;;;;;;4969449;28;20034;-59
2021/09/30 10:58:59;;;;;;;16.58;8.55;;;;;;;;;;4967914;28;20045;-62
2021/09/30 11:01:25;;;;;;;18.05;9.38;;;;;;;;;;4996312;22;20056;-56
2021/09/30 11:04:01;;;;;;;20.25;9.30;;;;;;;;;;5041034;28;20092;-58
2021/09/30 11:06:28;;;;;;;16.80;9.63;;;;;;;;;;5067106;28;20017;-57
2021/09/30 11:09:09;;;;;;;27.80;10.40;;;;;;;;;;5051789;28;20358;-59
2021/09/30 11:11:35;;;;;;;18.70;10.05;;;;;;;;;;5066542;28;20082;-59
2021/09/30 11:14:01;;;;;;;17.35;10.43;;;;;;;;;;5067375;28;20025;-55
2021/09/30 11:16:39;;;;;;;17.27;10.18;;;;;;;;;;5067177;28;20216;-57
2021/09/30 11:19:06;;;;;;;18.77;10.13;;;;;;;;;;5051684;28;20025;-58
2021/09/30 11:21:32;;;;;;;19.83;10.32;;;;;;;;;;5050405;28;20108;-57
2021/09/30 11:24:01;;;;;;;16.90;10.60;;;;;;;;;;5066386;28;20074;-57
2021/09/30 11:26:28;;;;;;;15.48;9.98;;;;;;;;;;5066890;28;20167;-52
2021/09/30 11:28:56;;;;;;;20.55;10.90;;;;;;;;;;5065913;28;20473;-58
2021/09/30 11:31:29;;;;;;;15.70;10.57;;;;;;;;;;5066221;28;20024;-56
2021/09/30 11:33:56;;;;;;;16.77;11.05;;;;;;;;;;5051476;28;20021;-58
2021/09/30 11:36:32;;;;;;;18.60;11.23;;;;;;;;;;5067137;28;20031;-57
2021/09/30 11:38:58;;;;;;;18.25;10.63;;;;;;;;;;5051192;28;20029;-54
2021/09/30 11:41:31;;;;;;;19.85;10.98;;;;;;;;;;5066807;28;20031;-54
2021/09/30 11:43:57;;;;;;;18.90;11.13;;;;;;;;;;5051911;28;20024;-56
2021/09/30 11:46:31;;;;;;;17.90;11.00;;;;;;;;;;5051318;28;20028;-57
2021/09/30 11:49:04;;;;;;;17.40;10.25;;;;;;;;;;5051001;28;20049;-57
2021/09/30 11:51:33;;;;;;;17.65;11.20;;;;;;;;;;5050348;28;20049;-56
2021/09/30 11:54:00;;;;;;;18.65;11.23;;;;;;;;;;5067026;28;20052;-52
2021/09/30 11:56:26;;;;;;;18.38;10.38;;;;;;;;;;5066503;28;20116;-55
2021/09/30 11:59:02;;;;;;;17.58;10.40;;;;;;;;;;5050743;28;20496;-54
2021/09/30 12:01:36;;;;;;;17.65;11.23;;;;;;;;;;5050896;28;20029;-55
2021/09/30 12:04:03;;;;;;;18.50;10.65;;;;;;;;;;5050976;28;20478;-57
2021/09/30 12:06:38;;;;;;;15.98;10.70;;;;;;;;;;5051189;28;20025;-55
2021/09/30 12:09:04;;;;;;;15.20;10.70;;;;;;;;;;5050681;28;20045;-57
2021/09/30 12:11:32;;;;;;;17.17;10.90;;;;;;;;;;5066243;28;20401;-54
2021/09/30 12:13:58;;;;;;;14.93;10.37;;;;;;;;;;5066349;28;20075;-57
2021/09/30 12:16:24;;;;;;;15.27;10.55;;;;;;;;;;5050927;28;20639;-55
2021/09/30 12:19:04;;;;;;;16.33;11.45;;;;;;;;;;5065988;28;20029;-51
2021/09/30 12:21:36;;;;;;;17.38;10.88;;;;;;;;;;5050633;28;20116;-55
2021/09/30 12:24:03;;;;;;;17.40;11.35;;;;;;;;;;5051104;28;20047;-52
2021/09/30 12:26:30;;;;;;;17.00;11.18;;;;;;;;;;5050978;28;20055;-53
2021/09/30 12:28:57;;;;;;;19.73;11.43;;;;;;;;;;5050273;28;20500;-55
2021/09/30 12:31:23;;;;;;;16.48;11.95;;;;;;;;;;5055589;28;20109;-55
2021/09/30 12:33:49;;;;;;;17.02;11.15;;;;;;;;;;5031026;28;20017;-58
2021/09/30 12:36:18;;;;;;;17.17;11.27;;;;;;;;;;5048458;28;20407;-56
2021/09/30 12:39:01;;;;;;;16.30;11.05;;;;;;;;;;5033898;28;20014;-56
2021/09/30 12:41:28;;;;;;;17.27;12.02;;;;;;;;;;5030298;28;20504;-59
2021/09/30 12:43:54;;;;;;;19.60;11.75;;;;;;;;;;5049331;28;20021;-55
2021/09/30 12:46:21;;;;;;;15.52;11.38;;;;;;;;;;5034969;28;20099;-54
2021/09/30 12:48:49;;;;;;;17.33;11.45;;;;;;;;;;5034391;28;20034;-54
2021/09/30 12:51:16;;;;;;;17.02;11.77;;;;;;;;;;5015209;28;20390;-56
2021/09/30 12:53:49;;;;;;;21.83;12.80;;;;;;;;;;5013880;28;20080;-56
2021/09/30 12:56:17;;;;;;;19.33;12.55;;;;;;;;;;5014710;28;20026;-52
2021/09/30 12:58:47;;;;;;;16.80;12.00;;;;;;;;;;5013414;28;20102;-54
2021/09/30 13:01:22;;;;;;;17.30;11.50;;;;;;;;;;5014171;28;20041;-57
2021/09/30 13:04:03;;;;;;;18.85;11.80;;;;;;;;;;5031583;28;20048;-57
2021/09/30 13:06:29;;;;;;;17.80;11.40;;;;;;;;;;5069710;28;20029;-54
2021/09/30 13:08:55;;;;;;;15.85;11.48;;;;;;;;;;5069213;28;20124;-53
2021/09/30 13:11:26;;;;;;;15.27;11.23;;;;;;;;;;5069046;28;20056;-52
2021/09/30 13:14:11;;;;;;;18.40;11.18;;;;;;;;;;5069722;28;20092;-54
2021/09/30 13:16:37;;;;;;;20.30;11.73;;;;;;;;;;5054296;28;20041;-57
2021/09/30 13:19:03;;;;;;;19.15;11.65;;;;;;;;;;4699969;28;10000262;-55
2021/09/30 13:21:29;;;;;;;17.13;11.68;;;;;;;;;;5031695;28;20502;-55
2021/09/30 13:23:55;;;;;;;17.35;11.00;;;;;;;;;;5029839;28;20096;-56
2021/09/30 13:26:21;;;;;;;18.20;10.95;;;;;;;;;;5029544;28;20397;-58
2021/09/30 13:28:47;;;;;;;17.50;11.07;;;;;;;;;;5029955;28;20096;-57
2021/09/30 13:31:13;;;;;;;16.10;10.90;;;;;;;;;;5030805;28;20100;-49
2021/09/30 13:33:39;;;;;;;18.02;11.13;;;;;;;;;;5031326;28;20481;-51
2021/09/30 13:36:05;;;;;;;17.40;11.40;;;;;;;;;;5032305;28;20026;-53
2021/09/30 13:38:31;;;;;;;19.58;11.52;;;;;;;;;;5031959;28;20481;-56
2021/09/30 13:40:57;;;;;;;18.83;11.95;;;;;;;;;;5031731;28;20032;-54
2021/09/30 13:43:22;;;;;;;17.08;11.77;;;;;;;;;;5033527;28;20083;-57
2021/09/30 13:45:48;;;;;;;16.42;11.05;;;;;;;;;;5033230;28;20048;-53
2021/09/30 13:48:14;;;;;;;17.73;11.40;;;;;;;;;;5032336;28;20030;-54
2021/09/30 13:50:40;;;;;;;16.30;10.90;;;;;;;;;;5033508;28;20035;-52
2021/09/30 13:53:06;;;;;;;18.60;11.30;;;;;;;;;;5015085;28;20503;-52
2021/09/30 13:55:32;;;;;;;17.17;11.00;;;;;;;;;;5034442;28;20385;-57
2021/09/30 13:57:59;;;;;;;16.05;10.63;;;;;;;;;;5032175;28;20021;-53
2021/09/30 14:00:25;;;;;;;15.10;10.60;;;;;;;;;;5031584;28;20026;-54
2021/09/30 14:02:51;;;;;;;17.35;11.13;;;;;;;;;;5031616;28;20048;-53
2021/09/30 14:05:18;;;;;;;16.17;11.20;;;;;;;;;;5031768;28;20130;-56
2021/09/30 14:07:45;;;;;;;16.35;11.23;;;;;;;;;;5027952;28;20021;-49
2021/09/30 14:10:14;;;;;;;16.25;10.98;;;;;;;;;;5022623;28;20029;-59
2021/09/30 14:12:40;;;;;;;18.70;11.18;;;;;;;;;;5031952;28;20025;-54
2021/09/30 14:15:07;;;;;;;18.00;10.63;;;;;;;;;;5031404;28;20116;-53
2021/09/30 14:17:33;;;;;;;18.73;10.65;;;;;;;;;;5032287;28;20398;-54
2021/09/30 14:19:59;;;;;;;18.38;10.98;;;;;;;;;;5045115;28;20021;-57
2021/09/30 14:22:26;;;;;;;15.52;11.40;;;;;;;;;;5048100;28;20022;-58
2021/09/30 14:24:52;;;;;;;20.42;11.85;;;;;;;;;;4683235;28;9999687;-54
2021/09/30 14:27:20;;;;;;;17.63;11.45;;;;;;;;;;5028931;28;20488;-52
2021/09/30 14:29:46;;;;;;;16.58;10.77;;;;;;;;;;5030024;28;20022;-51
2021/09/30 14:32:12;;;;;;;16.92;10.98;;;;;;;;;;5029659;28;20568;-54
2021/09/30 14:34:39;;;;;;;17.83;10.35;;;;;;;;;;5029264;28;20482;-53
2021/09/30 14:37:05;;;;;;;17.90;11.90;;;;;;;;;;5045025;28;20381;-54
2021/09/30 14:39:31;;;;;;;17.58;10.85;;;;;;;;;;5044143;28;20041;-53
2021/09/30 14:41:57;;;;;;;16.77;10.85;;;;;;;;;;5044657;28;20032;-53
2021/09/30 14:44:24;;;;;;;15.63;10.75;;;;;;;;;;5029231;28;20052;-54
2021/09/30 14:46:51;;;;;;;18.15;10.70;;;;;;;;;;5029540;28;20033;-53
2021/09/30 14:49:17;;;;;;;16.42;10.20;;;;;;;;;;5044817;28;20037;-57
2021/09/30 14:51:43;;;;;;;16.83;10.60;;;;;;;;;;5044627;28;20021;-54
2021/09/30 14:54:09;;;;;;;16.35;10.90;;;;;;;;;;5028314;28;20037;-57
2021/09/30 14:56:35;;;;;;;18.67;10.70;;;;;;;;;;5028803;28;20040;-55
2021/09/30 14:59:01;;;;;;;16.88;10.52;;;;;;;;;;5044272;28;20026;-54
2021/09/30 15:01:27;;;;;;;16.90;10.10;;;;;;;;;;5044592;28;20045;-57
2021/09/30 15:03:55;;;;;;;15.77;9.98;;;;;;;;;;5053732;28;20059;-55
2021/09/30 15:06:21;;;;;;;16.58;10.25;;;;;;;;;;5046360;28;20113;-59
2021/09/30 15:08:47;;;;;;;17.63;9.80;;;;;;;;;;5027989;28;20068;-56
2021/09/30 15:11:13;;;;;;;15.23;9.57;;;;;;;;;;5028204;28;20588;-57
2021/09/30 15:13:39;;;;;;;19.95;10.60;;;;;;;;;;5044126;28;20095;-54
2021/09/30 15:16:08;;;;;;;16.10;10.05;;;;;;;;;;5028578;28;20025;-57
2021/09/30 15:21:22;;;;;;;16.27;10.30;;;;;;;;;;5029704;28;20120;-55
2021/09/30 15:23:49;;;;;;;16.10;10.00;;;;;;;;;;5030150;28;20025;-55
2021/09/30 15:26:16;;;;;;;17.33;10.30;;;;;;;;;;5030749;28;20084;-57
2021/09/30 15:28:42;;;;;;;16.08;10.20;;;;;;;;;;5046169;28;20033;-53
2021/09/30 15:31:08;;;;;;;18.17;10.23;;;;;;;;;;5046766;28;20033;-55
2021/09/30 15:33:35;;;;;;;16.90;10.43;;;;;;;;;;5046592;28;20026;-50
2021/09/30 15:36:01;;;;;;;16.52;10.20;;;;;;;;;;5046863;28;20533;-54
2021/09/30 15:38:27;;;;;;;17.02;10.00;;;;;;;;;;5046068;28;20113;-57
2021/09/30 15:40:54;;;;;;;16.92;10.20;;;;;;;;;;5030738;28;20032;-53
2021/09/30 15:43:20;;;;;;;19.25;10.65;;;;;;;;;;5031185;28;20044;-52
2021/09/30 15:45:46;;;;;;;16.42;10.18;;;;;;;;;;5046729;28;20057;-54
2021/09/30 15:48:12;;;;;;;16.48;10.15;;;;;;;;;;5045918;28;20068;-58
2021/09/30 15:50:38;;;;;;;17.15;10.18;;;;;;;;;;5030540;28;20116;-57
2021/09/30 15:53:04;;;;;;;20.33;11.25;;;;;;;;;;5031236;28;20108;-56
2021/09/30 15:55:30;;;;;;;16.58;10.32;;;;;;;;;;5031010;28;20029;-56
2021/09/30 15:57:56;;;;;;;17.55;10.35;;;;;;;;;;5031113;28;20132;-58
2021/09/30 16:00:22;;;;;;;18.80;10.90;;;;;;;;;;5010490;28;20048;-56
2021/09/30 16:02:49;;;;;;;17.58;10.48;;;;;;;;;;5009947;28;20057;-53
2021/09/30 16:05:15;;;;;;;16.95;10.10;;;;;;;;;;5047033;28;20025;-57
2021/09/30 16:07:41;;;;;;;18.75;10.18;;;;;;;;;;5030997;28;20109;-54
2021/09/30 16:10:07;;;;;;;18.75;10.48;;;;;;;;;;5031497;28;20671;-58
2021/09/30 16:12:33;;;;;;;16.30;9.80;;;;;;;;;;5034736;28;20021;-58
2021/09/30 16:14:59;;;;;;;17.58;10.20;;;;;;;;;;5034074;28;20026;-56
2021/09/30 16:17:25;;;;;;;16.35;10.10;;;;;;;;;;4685422;28;9999715;-58
2021/09/30 16:19:51;;;;;;;19.35;10.52;;;;;;;;;;5032432;28;20021;-54
2021/09/30 16:22:18;;;;;;;17.70;10.90;;;;;;;;;;5032830;28;20025;-60
2021/09/30 16:24:44;;;;;;;19.50;10.80;;;;;;;;;;5032894;28;20124;-55
2021/09/30 16:27:10;;;;;;;18.60;10.10;;;;;;;;;;5032455;28;20029;-60
2021/09/30 16:29:36;;;;;;;16.48;9.70;;;;;;;;;;5047158;28;20064;-56
2021/09/30 16:32:02;;;;;;;18.65;10.20;;;;;;;;;;5032245;28;20465;-59
2021/09/30 16:34:28;;;;;;;19.58;10.00;;;;;;;;;;5032108;28;20060;-59
2021/09/30 16:36:54;;;;;;;22.15;10.65;;;;;;;;;;5032525;28;20021;-60
2021/09/30 16:39:20;;;;;;;16.75;9.30;;;;;;;;;;5033772;28;20028;-58
2021/09/30 16:41:46;;;;;;;17.00;9.60;;;;;;;;;;5034799;28;20041;-59
2021/09/30 16:44:15;;;;;;;16.52;9.50;;;;;;;;;;5049659;28;20045;-58
2021/09/30 16:46:41;;;;;;;16.80;9.45;;;;;;;;;;5034280;28;20056;-57
2021/09/30 16:49:07;;;;;;;18.10;9.45;;;;;;;;;;5049789;28;20026;-55
2021/09/30 16:51:33;;;;;;;17.70;9.20;;;;;;;;;;5034027;28;20036;-58
2021/09/30 16:53:59;;;;;;;17.58;9.00;;;;;;;;;;5034225;28;20191;-57
2021/09/30 16:56:25;;;;;;;17.20;9.10;;;;;;;;;;5039184;28;20474;-58
2021/09/30 16:58:51;;;;;;;16.60;9.05;;;;;;;;;;4675816;28;10000139;-59
2021/09/30 17:01:18;;;;;;;16.48;9.50;;;;;;;;;;5031077;28;20103;-62
2021/09/30 17:03:45;;;;;;;17.70;8.82;;;;;;;;;;5052404;22;20522;-60
2021/09/30 17:06:11;;;;;;;15.68;8.43;;;;;;;;;;4937860;28;20039;-61
2021/09/30 17:08:37;;;;;;;17.10;8.20;;;;;;;;;;5022720;28;20019;-62
2021/09/30 17:11:04;;;;;;;15.95;8.52;;;;;;;;;;5006849;28;20086;-62
2021/09/30 17:13:30;;;;;;;18.63;9.20;;;;;;;;;;5020860;28;20051;-60
2021/09/30 17:16:00;;;;;;;18.50;8.93;;;;;;;;;;4939026;28;20059;-63
2021/09/30 17:18:26;;;;;;;16.08;8.55;;;;;;;;;;5005870;28;20077;-63
2021/09/30 17:20:53;;;;;;;17.70;8.30;;;;;;;;;;5004157;28;20081;-63
2021/09/30 17:23:19;;;;;;;20.10;9.50;;;;;;;;;;5019419;28;20036;-62
2021/09/30 17:25:47;;;;;;;15.90;8.20;;;;;;;;;;4938050;28;20181;-62
2021/09/30 17:28:14;;;;;;;18.10;8.93;;;;;;;;;;4939250;28;20027;-63
2021/09/30 17:30:40;;;;;;;21.00;8.50;;;;;;;;;;4939154;28;20024;-62